createdAt,value
2022-12-27T00:00:01.207Z,991.3985
2022-12-27T00:01:00.423Z,991.4629
2022-12-27T00:02:00.596Z,991.2931
2022-12-27T00:03:00.706Z,991.4666
2022-12-27T00:04:00.786Z,991.5095
2022-12-27T00:05:00.950Z,991.4958
2022-12-27T00:06:01.098Z,991.4424
2022-12-27T00:07:01.231Z,991.4707
2022-12-27T00:08:00.382Z,991.489
2022-12-27T00:09:00.545Z,991.5173
2022-12-27T00:10:00.686Z,991.7154
2022-12-27T00:11:00.817Z,991.6664
2022-12-27T00:12:00.994Z,991.7095
2022-12-27T00:13:01.131Z,991.7727
2022-12-27T00:14:00.304Z,991.7727
2022-12-27T00:15:00.448Z,991.9288
2022-12-27T00:16:00.642Z,991.7378
2022-12-27T00:17:00.752Z,991.7307
2022-12-27T00:18:00.904Z,991.7024
2022-12-27T00:19:01.067Z,991.9288
2022-12-27T00:20:06.855Z,991.8304
2022-12-27T00:21:00.344Z,991.887
2022-12-27T00:22:00.559Z,991.8026
2022-12-27T00:23:00.652Z,991.8813
2022-12-27T00:24:00.814Z,991.7476
2022-12-27T00:25:00.931Z,991.9456
2022-12-27T00:26:01.081Z,991.9319
2022-12-27T00:27:01.231Z,991.9458
2022-12-27T00:28:00.376Z,991.9319
2022-12-27T00:29:00.549Z,991.9319
2022-12-27T00:30:00.675Z,991.9319
2022-12-27T00:31:00.841Z,992.0168
2022-12-27T00:32:01.024Z,991.9964
2022-12-27T00:33:01.136Z,991.9832
2022-12-27T00:34:00.310Z,991.8849
2022-12-27T00:35:00.440Z,992.0046
2022-12-27T00:36:00.580Z,991.9414
2022-12-27T00:37:00.722Z,991.857
2022-12-27T00:38:00.893Z,991.9419
2022-12-27T00:39:01.048Z,992.0483
2022-12-27T00:40:01.177Z,992.0483
2022-12-27T00:41:00.355Z,992.1049
2022-12-27T00:42:00.472Z,992.1827
2022-12-27T00:43:00.617Z,992.1407
2022-12-27T00:44:00.761Z,992.2823
2022-12-27T00:45:00.925Z,992.1133
2022-12-27T00:46:01.145Z,992.4457
2022-12-27T00:47:01.218Z,992.4808
2022-12-27T00:48:00.362Z,992.4105
2022-12-27T00:49:00.505Z,992.4808
2022-12-27T00:50:00.672Z,992.3613
2022-12-27T00:51:00.828Z,992.3613
2022-12-27T00:52:00.947Z,992.3613
2022-12-27T00:53:01.113Z,992.2705
2022-12-27T00:54:01.247Z,992.4683
2022-12-27T00:55:00.394Z,992.2987
2022-12-27T00:56:00.592Z,992.285
2022-12-27T00:57:00.705Z,992.3912
2022-12-27T00:58:00.837Z,992.3912
2022-12-27T00:59:01.003Z,992.6456
2022-12-27T01:00:06.161Z,992.5257
2022-12-27T01:01:00.294Z,992.3569
2022-12-27T01:02:00.650Z,992.6961
2022-12-27T01:03:00.575Z,992.6113
2022-12-27T01:04:00.815Z,992.47
2022-12-27T01:05:00.897Z,992.6817
2022-12-27T01:06:01.053Z,992.7526
2022-12-27T01:07:01.180Z,992.6395
2022-12-27T01:08:00.331Z,992.583
2022-12-27T01:09:00.491Z,992.6961
2022-12-27T01:10:00.647Z,992.6967
2022-12-27T01:11:00.814Z,992.7463
2022-12-27T01:12:00.942Z,992.5416
2022-12-27T01:13:01.092Z,992.7891
2022-12-27T01:14:01.239Z,992.7188
2022-12-27T01:15:00.375Z,992.7188
2022-12-27T01:16:00.558Z,992.7891
2022-12-27T01:17:00.738Z,992.7608
2022-12-27T01:18:00.833Z,992.7112
2022-12-27T01:19:00.984Z,992.8456
2022-12-27T01:20:01.131Z,992.9272
2022-12-27T01:21:00.274Z,992.8036
2022-12-27T01:22:00.448Z,992.9066
2022-12-27T01:23:00.576Z,992.9914
2022-12-27T01:24:00.723Z,992.9563
2022-12-27T01:25:00.866Z,993.0924
2022-12-27T01:26:01.032Z,992.886
2022-12-27T01:27:01.194Z,992.8401
2022-12-27T01:28:00.304Z,992.9713
2022-12-27T01:29:00.462Z,993.1571
2022-12-27T01:30:00.604Z,993.0868
2022-12-27T01:31:00.734Z,993.0868
2022-12-27T01:32:01.008Z,993.1011
2022-12-27T01:33:01.032Z,993.1864
2022-12-27T01:34:01.186Z,993.2368
2022-12-27T01:35:00.346Z,993.3046
2022-12-27T01:36:00.496Z,993.3191
2022-12-27T01:37:00.663Z,993.3055
2022-12-27T01:38:00.783Z,993.299
2022-12-27T01:39:00.929Z,993.3768
2022-12-27T01:40:01.109Z,993.2639
2022-12-27T01:41:01.237Z,993.3493
2022-12-27T01:42:00.394Z,993.4898
2022-12-27T01:43:00.531Z,993.1968
2022-12-27T01:44:00.669Z,993.3218
2022-12-27T01:45:00.830Z,993.3575
2022-12-27T01:46:01.062Z,993.4421
2022-12-27T01:47:01.136Z,993.6592
2022-12-27T01:48:00.263Z,993.5462
2022-12-27T01:49:03.222Z,993.7438
2022-12-27T01:50:00.567Z,993.6667
2022-12-27T01:51:00.714Z,993.5048
2022-12-27T01:52:00.858Z,993.4979
2022-12-27T01:53:01.035Z,993.5827
2022-12-27T01:54:01.183Z,993.7099
2022-12-27T01:55:00.300Z,993.5263
2022-12-27T01:56:00.459Z,993.7721
2022-12-27T01:57:00.617Z,993.6443
2022-12-27T01:58:00.775Z,993.7427
2022-12-27T01:59:00.899Z,993.6443
2022-12-27T02:00:01.108Z,993.779
2022-12-27T02:01:01.237Z,993.7156
2022-12-27T02:02:00.426Z,993.7156
2022-12-27T02:03:00.572Z,993.7507
2022-12-27T02:04:00.654Z,993.7438
2022-12-27T02:05:00.793Z,993.7721
2022-12-27T02:06:00.952Z,993.8568
2022-12-27T02:07:01.094Z,993.6392
2022-12-27T02:08:01.256Z,993.9075
2022-12-27T02:09:00.392Z,993.8022
2022-12-27T02:10:00.543Z,993.767
2022-12-27T02:11:00.698Z,993.8804
2022-12-27T02:12:00.836Z,993.6622
2022-12-27T02:13:01.035Z,993.733
2022-12-27T02:14:01.132Z,993.8183
2022-12-27T02:15:00.276Z,993.9454
2022-12-27T02:16:00.425Z,993.8891
2022-12-27T02:17:00.640Z,993.8685
2022-12-27T02:18:00.755Z,993.8903
2022-12-27T02:19:00.858Z,993.9893
2022-12-27T02:20:01.007Z,994.018
2022-12-27T02:21:01.157Z,993.9334
2022-12-27T02:22:00.304Z,993.8777
2022-12-27T02:23:00.484Z,993.9698
2022-12-27T02:24:00.648Z,993.9341
2022-12-27T02:25:00.781Z,994.0331
2022-12-27T02:26:00.911Z,993.9906
2022-12-27T02:27:01.085Z,994.0826
2022-12-27T02:28:01.208Z,994.0969
2022-12-27T02:29:00.375Z,993.9559
2022-12-27T02:30:00.529Z,993.9421
2022-12-27T02:31:00.685Z,994.1612
2022-12-27T02:32:00.811Z,994.2043
2022-12-27T02:33:00.952Z,994.0009
2022-12-27T02:34:01.109Z,994.0083
2022-12-27T02:35:01.270Z,994.0302
2022-12-27T02:36:00.409Z,994.2275
2022-12-27T02:37:00.540Z,994.1152
2022-12-27T02:38:00.687Z,994.1578
2022-12-27T02:39:00.841Z,994.2142
2022-12-27T02:40:01.003Z,994.0669
2022-12-27T02:41:01.181Z,994.2785
2022-12-27T02:42:00.284Z,994.1308
2022-12-27T02:43:00.445Z,994.2084
2022-12-27T02:44:00.593Z,994.0819
2022-12-27T02:45:00.768Z,994.152
2022-12-27T02:46:01.011Z,994.152
2022-12-27T02:47:01.036Z,994.2084
2022-12-27T02:48:01.187Z,994.0467
2022-12-27T02:49:00.353Z,994.1594
2022-12-27T02:50:00.499Z,994.2721
2022-12-27T02:51:00.656Z,994.2509
2022-12-27T02:52:00.973Z,994.3002
2022-12-27T02:53:00.936Z,994.413
2022-12-27T02:54:01.083Z,994.3004
2022-12-27T02:55:01.258Z,994.2021
2022-12-27T02:56:00.378Z,994.3008
2022-12-27T02:57:00.513Z,994.6037
2022-12-27T02:58:00.658Z,994.4845
2022-12-27T02:59:00.797Z,994.5266
2022-12-27T03:00:00.989Z,994.3513
2022-12-27T03:01:01.128Z,994.3513
2022-12-27T03:02:01.357Z,994.3934
2022-12-27T03:03:00.419Z,994.5766
2022-12-27T03:04:00.566Z,994.4785
2022-12-27T03:05:00.738Z,994.4222
2022-12-27T03:06:00.887Z,994.4785
2022-12-27T03:07:01.015Z,994.4226
2022-12-27T03:08:01.172Z,994.4864
2022-12-27T03:09:00.306Z,994.472
2022-12-27T03:10:00.492Z,994.515
2022-12-27T03:11:00.671Z,994.3743
2022-12-27T03:12:00.764Z,994.6136
2022-12-27T03:13:00.911Z,994.6138
2022-12-27T03:14:01.052Z,994.5294
2022-12-27T03:15:01.195Z,994.4943
2022-12-27T03:16:00.401Z,994.5648
2022-12-27T03:17:00.512Z,994.6955
2022-12-27T03:18:00.632Z,994.5584
2022-12-27T03:19:00.820Z,994.4325
2022-12-27T03:20:00.949Z,994.5941
2022-12-27T03:21:01.091Z,994.7038
2022-12-27T03:22:01.252Z,994.6901
2022-12-27T03:23:00.405Z,994.7113
2022-12-27T03:24:00.557Z,994.6445
2022-12-27T03:25:00.695Z,994.5883
2022-12-27T03:26:00.840Z,994.81
2022-12-27T03:27:00.993Z,994.7051
2022-12-27T03:28:01.156Z,994.5395
2022-12-27T03:29:00.305Z,994.6801
2022-12-27T03:30:00.459Z,994.6237
2022-12-27T03:31:00.695Z,994.7113
2022-12-27T03:32:00.750Z,994.7538
2022-12-27T03:33:00.916Z,994.5669
2022-12-27T03:34:01.080Z,994.6296
2022-12-27T03:35:01.200Z,994.704
2022-12-27T03:36:00.361Z,994.6719
2022-12-27T03:37:00.496Z,994.7534
2022-12-27T03:38:00.641Z,994.7257
2022-12-27T03:39:00.823Z,994.6513
2022-12-27T03:40:00.939Z,994.6369
2022-12-27T03:41:01.096Z,994.8663
2022-12-27T03:42:01.241Z,994.9301
2022-12-27T03:43:00.402Z,994.712
2022-12-27T03:44:00.557Z,994.8601
2022-12-27T03:45:00.730Z,994.8601
2022-12-27T03:46:00.895Z,994.9301
2022-12-27T03:47:00.996Z,994.8033
2022-12-27T03:48:01.140Z,995.0632
2022-12-27T03:49:00.286Z,994.8601
2022-12-27T03:50:00.450Z,994.9445
2022-12-27T03:51:00.687Z,995.0076
2022-12-27T03:52:00.733Z,995.0565
2022-12-27T03:53:00.883Z,994.9652
2022-12-27T03:54:01.028Z,994.9301
2022-12-27T03:55:01.201Z,994.7264
2022-12-27T03:56:00.327Z,994.8601
2022-12-27T03:57:00.487Z,994.7832
2022-12-27T03:58:00.636Z,994.8393
2022-12-27T03:59:00.811Z,994.9301
2022-12-27T04:00:00.979Z,994.8462
2022-12-27T04:01:01.118Z,994.8601
2022-12-27T04:02:01.370Z,994.7676
2022-12-27T04:03:00.562Z,994.7038
2022-12-27T04:04:00.560Z,994.886
2022-12-27T04:05:00.708Z,994.9207
2022-12-27T04:06:00.829Z,994.7735
2022-12-27T04:07:00.988Z,994.8644
2022-12-27T04:08:01.137Z,994.977
2022-12-27T04:09:00.279Z,994.8793
2022-12-27T04:10:00.448Z,994.8164
2022-12-27T04:11:00.577Z,994.8793
2022-12-27T04:12:00.738Z,994.7735
2022-12-27T04:13:00.875Z,994.8164
2022-12-27T04:14:01.038Z,994.8096
2022-12-27T04:15:01.201Z,994.7676
2022-12-27T04:16:00.368Z,994.6975
2022-12-27T04:17:00.481Z,994.852
2022-12-27T04:18:00.625Z,995.0002
2022-12-27T04:19:00.776Z,994.8801
2022-12-27T04:20:00.950Z,994.8096
2022-12-27T04:21:01.079Z,994.7752
2022-12-27T04:22:01.235Z,994.9164
2022-12-27T04:23:00.387Z,994.8957
2022-12-27T04:24:00.534Z,994.8185
2022-12-27T04:25:00.707Z,994.818
2022-12-27T04:26:00.831Z,995.0002
2022-12-27T04:27:00.980Z,994.9445
2022-12-27T04:28:01.134Z,994.8601
2022-12-27T04:29:00.272Z,995.0076
2022-12-27T04:30:00.464Z,994.8462
2022-12-27T04:31:00.609Z,994.9518
2022-12-27T04:32:00.727Z,994.9164
2022-12-27T04:33:00.863Z,994.9445
2022-12-27T04:34:01.016Z,994.818
2022-12-27T04:35:01.185Z,994.9518
2022-12-27T04:36:05.944Z,994.9237
2022-12-27T04:37:00.451Z,994.8957
2022-12-27T04:38:00.614Z,994.9803
2022-12-27T04:39:00.739Z,994.6991
2022-12-27T04:40:00.929Z,994.8609
2022-12-27T04:41:01.046Z,994.8116
2022-12-27T04:42:01.200Z,994.7484
2022-12-27T04:43:00.346Z,994.8466
2022-12-27T04:44:00.489Z,994.8113
2022-12-27T04:45:00.649Z,994.713
2022-12-27T04:46:00.770Z,994.8959
2022-12-27T04:47:00.929Z,994.8601
2022-12-27T04:48:01.087Z,995.0289
2022-12-27T04:49:01.228Z,995.0632
2022-12-27T04:50:00.402Z,994.7534
2022-12-27T04:51:00.510Z,994.8447
2022-12-27T04:52:00.674Z,994.7884
2022-12-27T04:53:00.806Z,994.9571
2022-12-27T04:54:00.947Z,994.9714
2022-12-27T04:55:01.109Z,995.1333
2022-12-27T04:56:01.254Z,995.2104
2022-12-27T04:57:00.396Z,994.9572
2022-12-27T04:58:00.544Z,994.7884
2022-12-27T04:59:00.744Z,994.9499
2022-12-27T05:00:00.891Z,995.0056
2022-12-27T05:01:00.994Z,994.8727
2022-12-27T05:02:01.238Z,995.0343
2022-12-27T05:03:00.446Z,994.6508
2022-12-27T05:04:00.458Z,994.9082
2022-12-27T05:05:00.600Z,995.1683
2022-12-27T05:06:00.741Z,994.8445
2022-12-27T05:07:00.889Z,994.9364
2022-12-27T05:08:01.052Z,995.0632
2022-12-27T05:09:01.192Z,994.8659
2022-12-27T05:10:00.376Z,994.9572
2022-12-27T05:11:00.472Z,995.2104
2022-12-27T05:12:00.617Z,995.0632
2022-12-27T05:13:00.773Z,995.0632
2022-12-27T05:14:00.956Z,995.0632
2022-12-27T05:15:01.090Z,995.0632
2022-12-27T05:16:01.288Z,995.0632
2022-12-27T05:17:00.378Z,995.0632
2022-12-27T05:18:00.522Z,995.0133
2022-12-27T05:19:00.656Z,995.1683
2022-12-27T05:20:00.835Z,995.1683
2022-12-27T05:21:00.963Z,995.0914
2022-12-27T05:22:01.117Z,995.0983
2022-12-27T05:23:00.271Z,995.2039
2022-12-27T05:24:05.448Z,995.1757
2022-12-27T05:25:00.576Z,995.2389
2022-12-27T05:26:00.729Z,994.9938
2022-12-27T05:27:00.848Z,994.9872
2022-12-27T05:28:01.000Z,994.9453
2022-12-27T05:29:01.174Z,994.98
2022-12-27T05:30:00.310Z,994.938
2022-12-27T05:31:00.547Z,995.205
2022-12-27T05:32:00.604Z,995.163
2022-12-27T05:33:00.747Z,995.1209
2022-12-27T05:34:00.893Z,995.1214
2022-12-27T05:35:01.033Z,995.0509
2022-12-27T05:36:01.193Z,995.008
2022-12-27T05:37:00.316Z,995.0639
2022-12-27T05:38:00.468Z,994.9583
2022-12-27T05:39:00.621Z,994.9445
2022-12-27T05:40:00.781Z,995.0644
2022-12-27T05:41:00.944Z,995.0159
2022-12-27T05:42:01.093Z,995.0084
2022-12-27T05:43:01.211Z,995.2058
2022-12-27T05:44:06.588Z,995.1634
2022-12-27T05:45:00.516Z,995.1209
2022-12-27T05:46:00.677Z,995.0716
2022-12-27T05:47:00.907Z,994.9726
2022-12-27T05:48:00.984Z,994.8882
2022-12-27T05:49:01.137Z,994.8882
2022-12-27T05:50:00.284Z,994.8959
2022-12-27T05:51:00.435Z,995.114
2022-12-27T05:52:00.594Z,995.0076
2022-12-27T05:53:00.737Z,995.0145
2022-12-27T05:54:00.899Z,994.9583
2022-12-27T05:55:01.052Z,995.0632
2022-12-27T05:56:01.218Z,994.9572
2022-12-27T05:57:00.358Z,995.0133
2022-12-27T05:58:00.521Z,994.9291
2022-12-27T05:59:00.640Z,995.1333
2022-12-27T06:00:00.813Z,995.0431
2022-12-27T06:01:00.941Z,995.1207
2022-12-27T06:02:01.306Z,994.9872
2022-12-27T06:03:01.436Z,995.1772
2022-12-27T06:04:00.408Z,995.1772
2022-12-27T06:05:00.549Z,995.2196
2022-12-27T06:06:00.715Z,995.2196
2022-12-27T06:07:00.835Z,995.1772
2022-12-27T06:08:01.005Z,995.2053
2022-12-27T06:09:01.139Z,995.2334
2022-12-27T06:10:00.275Z,995.233
2022-12-27T06:11:00.435Z,995.1907
2022-12-27T06:12:00.572Z,995.3101
2022-12-27T06:13:00.742Z,995.3101
2022-12-27T06:14:00.904Z,995.1487
2022-12-27T06:15:01.032Z,995.2122
2022-12-27T06:16:01.280Z,995.2615
2022-12-27T06:17:00.341Z,995.3464
2022-12-27T06:18:00.482Z,995.3464
2022-12-27T06:19:00.639Z,995.3183
2022-12-27T06:20:00.785Z,995.4026
2022-12-27T06:21:00.925Z,995.3883
2022-12-27T06:22:01.060Z,995.4234
2022-12-27T06:23:01.208Z,995.2274
2022-12-27T06:24:00.393Z,995.3464
2022-12-27T06:25:00.561Z,995.4026
2022-12-27T06:26:00.651Z,995.4307
2022-12-27T06:27:00.827Z,995.4026
2022-12-27T06:28:00.957Z,995.3606
2022-12-27T06:29:01.107Z,995.4944
2022-12-27T06:30:01.261Z,995.4804
2022-12-27T06:31:00.411Z,995.4589
2022-12-27T06:32:00.619Z,995.6052
2022-12-27T06:33:00.692Z,995.6752
2022-12-27T06:34:00.845Z,995.7311
2022-12-27T06:35:01.027Z,995.5493
2022-12-27T06:36:01.143Z,995.6676
2022-12-27T06:37:00.296Z,995.8295
2022-12-27T06:38:00.456Z,995.752
2022-12-27T06:39:00.613Z,995.7031
2022-12-27T06:40:00.781Z,995.654
2022-12-27T06:41:00.913Z,995.8298
2022-12-27T06:42:01.048Z,995.7584
2022-12-27T06:43:01.200Z,995.7584
2022-12-27T06:44:00.365Z,995.8013
2022-12-27T06:45:00.517Z,995.8436
2022-12-27T06:46:00.767Z,995.654
2022-12-27T06:47:00.800Z,995.8228
2022-12-27T06:48:00.938Z,995.8444
2022-12-27T06:49:01.087Z,995.7177
2022-12-27T06:50:01.247Z,995.9002
2022-12-27T06:51:00.415Z,995.9214
2022-12-27T06:52:00.530Z,995.8999
2022-12-27T06:53:00.689Z,996.0895
2022-12-27T06:54:00.854Z,995.9912
2022-12-27T06:55:00.975Z,995.9701
2022-12-27T06:56:01.147Z,995.977
2022-12-27T06:57:00.269Z,996.0471
2022-12-27T06:58:00.413Z,996.1379
2022-12-27T06:59:00.588Z,996.0678
2022-12-27T07:00:00.725Z,996.1384
2022-12-27T07:01:00.869Z,996.0753
2022-12-27T07:02:01.261Z,996.0471
2022-12-27T07:03:01.240Z,996.286
2022-12-27T07:04:00.348Z,996.1803
2022-12-27T07:05:00.467Z,996.2366
2022-12-27T07:06:00.618Z,996.2302
2022-12-27T07:07:00.785Z,996.1531
2022-12-27T07:08:00.924Z,996.2446
2022-12-27T07:09:01.115Z,996.4808
2022-12-27T07:10:01.241Z,996.2727
2022-12-27T07:11:00.386Z,996.2583
2022-12-27T07:12:00.524Z,996.209
2022-12-27T07:13:00.689Z,996.202
2022-12-27T07:14:00.860Z,996.2371
2022-12-27T07:15:01.014Z,996.202
2022-12-27T07:16:01.131Z,996.3145
2022-12-27T07:17:00.345Z,996.2652
2022-12-27T07:18:00.420Z,996.202
2022-12-27T07:19:00.586Z,996.3776
2022-12-27T07:20:00.723Z,996.3847
2022-12-27T07:21:00.866Z,996.2652
2022-12-27T07:22:01.005Z,996.7403
2022-12-27T07:23:01.158Z,996.5011
2022-12-27T07:24:00.333Z,996.5292
2022-12-27T07:25:00.475Z,996.4548
2022-12-27T07:26:00.609Z,996.3284
2022-12-27T07:27:00.752Z,996.3847
2022-12-27T07:28:00.905Z,996.4802
2022-12-27T07:29:01.071Z,996.6702
2022-12-27T07:30:01.242Z,996.7403
2022-12-27T07:31:00.355Z,996.536
2022-12-27T07:32:00.557Z,996.9438
2022-12-27T07:33:00.652Z,996.6486
2022-12-27T07:34:00.799Z,996.4937
2022-12-27T07:35:00.977Z,996.5427
2022-12-27T07:36:01.103Z,996.5708
2022-12-27T07:37:01.261Z,996.7959
2022-12-27T07:38:00.396Z,996.5918
2022-12-27T07:39:00.536Z,996.5918
2022-12-27T07:40:00.705Z,996.704
2022-12-27T07:41:00.859Z,996.8162
2022-12-27T07:42:07.798Z,996.4718
2022-12-27T07:43:01.134Z,996.7036
2022-12-27T07:44:00.290Z,996.6473
2022-12-27T07:45:00.461Z,996.5629
2022-12-27T07:46:00.679Z,996.6755
2022-12-27T07:47:00.739Z,996.5911
2022-12-27T07:48:00.883Z,996.6473
2022-12-27T07:49:01.036Z,996.788
2022-12-27T07:50:01.202Z,996.6473
2022-12-27T07:51:00.324Z,996.5351
2022-12-27T07:52:00.473Z,996.6192
2022-12-27T07:53:00.651Z,996.4255
2022-12-27T07:54:00.820Z,996.433
2022-12-27T07:55:01.017Z,996.5358
2022-12-27T07:56:01.084Z,996.7118
2022-12-27T07:57:01.243Z,996.5153
2022-12-27T07:58:00.383Z,996.7403
2022-12-27T07:59:00.536Z,996.6702
2022-12-27T08:00:00.730Z,996.565
2022-12-27T08:01:00.889Z,996.5791
2022-12-27T08:02:01.141Z,996.5089
2022-12-27T08:03:01.159Z,996.6354
2022-12-27T08:04:00.271Z,996.565
2022-12-27T08:05:00.450Z,996.6919
2022-12-27T08:06:00.568Z,996.6495
2022-12-27T08:07:00.708Z,996.7481
2022-12-27T08:08:00.856Z,996.8606
2022-12-27T08:09:01.016Z,996.9307
2022-12-27T08:10:01.181Z,996.7052
2022-12-27T08:11:05.319Z,996.8736
2022-12-27T08:12:00.457Z,996.8736
2022-12-27T08:13:00.615Z,996.8736
2022-12-27T08:14:00.765Z,996.7048
2022-12-27T08:15:00.924Z,996.8736
2022-12-27T08:16:01.081Z,996.9438
2022-12-27T08:17:01.260Z,996.6625
2022-12-27T08:18:00.361Z,996.7959
2022-12-27T08:19:04.860Z,996.9789
2022-12-27T08:20:00.660Z,996.8521
2022-12-27T08:21:00.818Z,996.7115
2022-12-27T08:22:00.987Z,996.9859
2022-12-27T08:23:01.100Z,996.7887
2022-12-27T08:24:01.273Z,996.9433
2022-12-27T08:25:00.387Z,996.7532
2022-12-27T08:26:00.543Z,996.6477
2022-12-27T08:27:00.698Z,996.8443
2022-12-27T08:28:00.837Z,996.7526
2022-12-27T08:29:00.991Z,996.6259
2022-12-27T08:30:01.141Z,996.7803
2022-12-27T08:31:00.390Z,996.787
2022-12-27T08:32:00.460Z,996.6812
2022-12-27T08:33:00.592Z,996.7371
2022-12-27T08:34:00.746Z,996.8917
2022-12-27T08:35:18.368Z,996.8351
2022-12-27T08:36:04.790Z,996.729
2022-12-27T08:37:01.203Z,996.567
2022-12-27T08:38:00.327Z,996.729
2022-12-27T08:39:00.523Z,996.6378
2022-12-27T08:40:02.932Z,996.9195
2022-12-27T08:41:00.780Z,996.7363
2022-12-27T08:42:00.963Z,996.7575
2022-12-27T08:43:01.102Z,996.9401
2022-12-27T08:44:01.247Z,996.9469
2022-12-27T08:45:00.381Z,996.9469
2022-12-27T08:46:00.565Z,996.644
2022-12-27T08:47:00.695Z,996.6861
2022-12-27T08:48:00.912Z,996.6579
2022-12-27T08:49:00.985Z,996.6788
2022-12-27T08:50:01.133Z,996.6506
2022-12-27T08:51:00.273Z,996.6085
2022-12-27T08:52:00.440Z,996.6576
2022-12-27T08:53:00.574Z,996.7631
2022-12-27T08:54:00.740Z,996.8751
2022-12-27T08:55:00.877Z,996.6565
2022-12-27T08:56:01.003Z,996.6564
2022-12-27T08:57:01.185Z,996.7479
2022-12-27T08:58:00.303Z,996.5645
2022-12-27T08:59:00.457Z,996.6908
2022-12-27T09:00:00.617Z,996.6908
2022-12-27T09:01:00.768Z,996.7754
2022-12-27T09:02:01.026Z,996.7472
2022-12-27T09:03:01.116Z,996.8385
2022-12-27T09:04:01.201Z,996.7536
2022-12-27T09:05:00.353Z,996.7394
2022-12-27T09:06:00.499Z,997.0284
2022-12-27T09:07:00.658Z,996.7533
2022-12-27T09:08:00.789Z,996.7813
2022-12-27T09:09:00.948Z,996.915
2022-12-27T09:10:01.072Z,996.8022
2022-12-27T09:11:01.225Z,996.9781
2022-12-27T09:12:03.043Z,996.9214
2022-12-27T09:13:00.544Z,996.7943
2022-12-27T09:14:00.674Z,996.8576
2022-12-27T09:15:00.838Z,996.8714
2022-12-27T09:16:01.004Z,996.9136
2022-12-27T09:17:01.130Z,997.0824
2022-12-27T09:18:01.254Z,996.7226
2022-12-27T09:19:00.481Z,997.0186
2022-12-27T09:20:00.557Z,996.934
2022-12-27T09:21:00.731Z,996.9619
2022-12-27T09:22:00.901Z,996.983
2022-12-27T09:23:01.018Z,996.9686
2022-12-27T09:24:01.161Z,997.1168
2022-12-27T09:25:00.402Z,996.9261
2022-12-27T09:26:00.465Z,996.8909
2022-12-27T09:27:00.625Z,997.053
2022-12-27T09:28:00.762Z,996.9753
2022-12-27T09:29:00.929Z,996.9892
2022-12-27T09:30:01.071Z,996.9963
2022-12-27T09:31:01.287Z,996.975
2022-12-27T09:32:00.378Z,996.8123
2022-12-27T09:33:00.540Z,996.8475
2022-12-27T09:34:00.694Z,996.8967
2022-12-27T09:35:00.842Z,996.946
2022-12-27T09:36:00.967Z,997.0517
2022-12-27T09:37:01.107Z,997.1575
2022-12-27T09:38:01.258Z,996.8604
2022-12-27T09:39:00.458Z,996.8461
2022-12-27T09:40:00.543Z,996.9731
2022-12-27T09:41:00.739Z,996.9306
2022-12-27T09:43:12.857Z,997.0716
2022-12-27T09:44:01.184Z,996.8737
2022-12-27T09:45:00.336Z,996.789
2022-12-27T09:46:00.508Z,996.923
2022-12-27T09:47:00.628Z,997.0709
2022-12-27T09:48:00.767Z,997.0143
2022-12-27T09:49:00.919Z,997.007
2022-12-27T09:50:01.087Z,997.0421
2022-12-27T09:51:01.217Z,996.8014
2022-12-27T09:52:00.371Z,996.879
2022-12-27T09:53:00.518Z,996.9493
2022-12-27T09:54:00.671Z,996.8644
2022-12-27T09:55:04.834Z,996.935
2022-12-27T09:56:01.026Z,996.9633
2022-12-27T09:57:19.333Z,997.0411
2022-12-27T09:58:00.292Z,997.0055
2022-12-27T09:59:00.424Z,996.9703
2022-12-27T10:00:00.592Z,997.1891
2022-12-27T10:01:00.721Z,996.8778
2022-12-27T10:02:01.005Z,996.9344
2022-12-27T10:03:01.021Z,997.0757
2022-12-27T10:04:01.163Z,996.7644
2022-12-27T10:05:19.756Z,996.7645
2022-12-27T10:06:00.534Z,996.9692
2022-12-27T10:07:00.608Z,996.6789
2022-12-27T10:08:00.794Z,996.9476
2022-12-27T10:09:00.922Z,996.8487
2022-12-27T10:10:01.065Z,996.7848
2022-12-27T10:11:01.208Z,996.6432
2022-12-27T10:12:00.363Z,996.8411
2022-12-27T10:13:00.511Z,996.8057
2022-12-27T10:14:00.683Z,996.8905
2022-12-27T10:15:00.805Z,996.8692
2022-12-27T10:16:01.050Z,996.8266
2022-12-27T10:17:01.107Z,996.7061
2022-12-27T10:18:01.246Z,997.0385
2022-12-27T10:19:00.388Z,996.8685
2022-12-27T10:20:00.544Z,996.8402
2022-12-27T10:21:00.718Z,996.9535
2022-12-27T10:22:00.848Z,996.8402
2022-12-27T10:23:06.026Z,996.9392
2022-12-27T10:24:01.146Z,996.8755
2022-12-27T10:25:00.303Z,996.7622
2022-12-27T10:26:00.463Z,996.9179
2022-12-27T10:27:00.604Z,996.7409
2022-12-27T10:28:00.745Z,996.8186
2022-12-27T10:29:00.900Z,996.8326
2022-12-27T10:30:01.045Z,996.7473
2022-12-27T10:31:01.228Z,996.719
2022-12-27T10:32:00.349Z,996.6691
2022-12-27T10:33:00.498Z,996.7114
2022-12-27T10:34:00.630Z,996.7467
2022-12-27T10:35:00.783Z,996.6404
2022-12-27T10:36:00.961Z,996.6971
2022-12-27T10:37:01.078Z,996.5837
2022-12-27T10:38:01.216Z,996.6757
2022-12-27T10:39:00.368Z,997.0087
2022-12-27T10:40:00.527Z,996.7751
2022-12-27T10:41:00.706Z,996.6971
2022-12-27T10:42:00.835Z,996.7254
2022-12-27T10:43:00.955Z,996.7821
2022-12-27T10:44:01.106Z,996.8956
2022-12-27T10:45:01.252Z,996.924
2022-12-27T10:46:00.409Z,996.8674
2022-12-27T10:47:00.602Z,997.0017
2022-12-27T10:48:00.698Z,996.7961
2022-12-27T10:49:21.225Z,996.9871
2022-12-27T10:50:00.996Z,996.7958
2022-12-27T10:51:01.140Z,996.8452
2022-12-27T10:52:00.307Z,996.7461
2022-12-27T10:53:00.483Z,996.9588
2022-12-27T10:54:00.693Z,996.8736
2022-12-27T10:55:00.798Z,996.7817
2022-12-27T10:56:00.922Z,996.8169
2022-12-27T10:57:01.057Z,996.9656
2022-12-27T10:58:01.206Z,996.8242
2022-12-27T10:59:00.373Z,996.8811
2022-12-27T11:00:00.506Z,996.8951
2022-12-27T11:01:00.810Z,996.8878
2022-12-27T11:02:00.993Z,997.2703
2022-12-27T11:03:01.033Z,997.0012
2022-12-27T11:04:02.528Z,997.1925
2022-12-27T11:06:00.384Z,997.0865
2022-12-27T11:07:00.523Z,997.0087
2022-12-27T11:08:00.677Z,997.1224
2022-12-27T11:09:00.849Z,996.974
2022-12-27T11:10:00.971Z,997.0238
2022-12-27T11:11:01.134Z,996.9885
2022-12-27T11:12:00.270Z,997.1722
2022-12-27T11:13:00.408Z,997.0589
2022-12-27T11:14:00.579Z,997.0306
2022-12-27T11:15:00.709Z,997.0234
2022-12-27T11:16:00.926Z,996.8957
2022-12-27T11:17:01.041Z,997.0087
2022-12-27T11:18:01.170Z,997.0441
2022-12-27T11:19:00.308Z,996.6685
2022-12-27T11:20:00.470Z,996.7887
2022-12-27T11:21:00.607Z,996.8454
2022-12-27T11:22:00.776Z,996.8171
2022-12-27T11:23:00.891Z,996.7886
2022-12-27T11:24:01.065Z,996.7886
2022-12-27T11:25:01.196Z,996.7461
2022-12-27T11:26:00.343Z,996.7461
2022-12-27T11:27:00.497Z,996.6539
2022-12-27T11:28:00.643Z,996.8235
2022-12-27T11:29:00.781Z,996.6396
2022-12-27T11:30:00.907Z,996.7956
2022-12-27T11:31:01.200Z,996.5972
2022-12-27T11:32:01.220Z,996.7032
2022-12-27T11:33:00.384Z,996.6955
2022-12-27T11:34:00.538Z,996.7733
2022-12-27T11:35:00.662Z,996.6245
2022-12-27T11:36:00.805Z,996.8017
2022-12-27T11:37:00.949Z,996.7522
2022-12-27T11:38:01.099Z,996.7449
2022-12-27T11:39:01.272Z,996.7449
2022-12-27T11:40:00.386Z,996.7802
2022-12-27T11:41:00.552Z,996.8653
2022-12-27T11:42:00.702Z,996.8227
2022-12-27T11:43:00.843Z,997.0066
2022-12-27T11:44:01.001Z,996.6663
2022-12-27T11:45:01.115Z,996.7797
2022-12-27T11:46:00.274Z,996.7724
2022-12-27T11:47:00.486Z,996.694
2022-12-27T11:48:00.622Z,996.8856